sensor_id;sensor_type;location;lat;lon;timestamp;P1;durP1;ratioP1;P2;durP2;ratioP2
20369;SDS011;10344;47.592;9.600;2024-03-06T00:39:23;3.25;;;2.95;;
20369;SDS011;10344;47.592;9.600;2024-03-06T00:41:49;3.17;;;2.90;;
20369;SDS011;10344;47.592;9.600;2024-03-06T00:44:18;3.10;;;2.80;;
20369;SDS011;10344;47.592;9.600;2024-03-06T00:46:43;3.67;;;3.28;;
20369;SDS011;10344;47.592;9.600;2024-03-06T00:49:09;3.22;;;2.92;;
20369;SDS011;10344;47.592;9.600;2024-03-06T00:51:35;3.77;;;3.47;;
20369;SDS011;10344;47.592;9.600;2024-03-06T00:54:02;3.50;;;3.20;;
20369;SDS011;10344;47.592;9.600;2024-03-06T00:56:30;3.22;;;2.92;;
20369;SDS011;10344;47.592;9.600;2024-03-06T00:58:56;3.40;;;3.10;;
20369;SDS011;10344;47.592;9.600;2024-03-06T01:01:24;4.45;;;3.78;;
20369;SDS011;10344;47.592;9.600;2024-03-06T01:03:51;3.67;;;3.25;;
20369;SDS011;10344;47.592;9.600;2024-03-06T01:06:17;3.40;;;3.10;;
20369;SDS011;10344;47.592;9.600;2024-03-06T01:08:43;3.20;;;2.90;;
20369;SDS011;10344;47.592;9.600;2024-03-06T01:11:09;3.10;;;2.80;;
20369;SDS011;10344;47.592;9.600;2024-03-06T01:13:39;2.85;;;2.60;;
20369;SDS011;10344;47.592;9.600;2024-03-06T01:16:05;3.10;;;2.80;;
20369;SDS011;10344;47.592;9.600;2024-03-06T01:18:31;2.97;;;2.70;;
20369;SDS011;10344;47.592;9.600;2024-03-06T01:20:59;3.60;;;3.30;;
20369;SDS011;10344;47.592;9.600;2024-03-06T01:23:25;3.50;;;3.20;;
20369;SDS011;10344;47.592;9.600;2024-03-06T01:25:50;3.25;;;2.75;;
20369;SDS011;10344;47.592;9.600;2024-03-06T01:28:16;3.63;;;2.87;;
20369;SDS011;10344;47.592;9.600;2024-03-06T01:30:42;3.00;;;2.70;;
20369;SDS011;10344;47.592;9.600;2024-03-06T01:33:08;2.25;;;2.05;;
20369;SDS011;10344;47.592;9.600;2024-03-06T01:35:34;2.10;;;1.90;;
20369;SDS011;10344;47.592;9.600;2024-03-06T01:38:00;2.07;;;1.87;;
20369;SDS011;10344;47.592;9.600;2024-03-06T01:40:26;1.90;;;1.80;;
20369;SDS011;10344;47.592;9.600;2024-03-06T01:42:53;2.22;;;2.03;;
20369;SDS011;10344;47.592;9.600;2024-03-06T01:45:19;2.05;;;1.92;;
20369;SDS011;10344;47.592;9.600;2024-03-06T01:47:45;2.13;;;2.00;;
20369;SDS011;10344;47.592;9.600;2024-03-06T01:50:11;2.10;;;1.90;;
20369;SDS011;10344;47.592;9.600;2024-03-06T01:52:38;2.27;;;2.03;;
20369;SDS011;10344;47.592;9.600;2024-03-06T01:55:07;2.33;;;2.13;;
20369;SDS011;10344;47.592;9.600;2024-03-06T01:57:36;2.22;;;2.00;;
20369;SDS011;10344;47.592;9.600;2024-03-06T02:00:05;2.13;;;1.92;;
20369;SDS011;10344;47.592;9.600;2024-03-06T02:02:37;2.05;;;1.92;;
20369;SDS011;10344;47.592;9.600;2024-03-06T02:05:02;2.10;;;1.90;;
20369;SDS011;10344;47.592;9.600;2024-03-06T02:07:28;2.28;;;1.92;;
20369;SDS011;10344;47.592;9.600;2024-03-06T02:09:57;2.00;;;1.80;;
20369;SDS011;10344;47.592;9.600;2024-03-06T02:12:25;1.95;;;1.85;;
20369;SDS011;10344;47.592;9.600;2024-03-06T02:14:55;2.00;;;1.70;;
20369;SDS011;10344;47.592;9.600;2024-03-06T02:17:21;2.05;;;1.85;;
20369;SDS011;10344;47.592;9.600;2024-03-06T02:19:55;1.90;;;1.80;;
20369;SDS011;10344;47.592;9.600;2024-03-06T02:22:23;1.98;;;1.77;;
20369;SDS011;10344;47.592;9.600;2024-03-06T02:24:49;1.70;;;1.60;;
20369;SDS011;10344;47.592;9.600;2024-03-06T02:27:15;1.70;;;1.60;;
20369;SDS011;10344;47.592;9.600;2024-03-06T02:29:41;1.88;;;1.77;;
20369;SDS011;10344;47.592;9.600;2024-03-06T02:32:08;1.95;;;1.80;;
20369;SDS011;10344;47.592;9.600;2024-03-06T02:34:34;2.08;;;1.90;;
20369;SDS011;10344;47.592;9.600;2024-03-06T02:37:00;2.10;;;1.80;;
20369;SDS011;10344;47.592;9.600;2024-03-06T02:39:28;2.03;;;1.85;;
20369;SDS011;10344;47.592;9.600;2024-03-06T02:41:56;1.70;;;1.60;;
20369;SDS011;10344;47.592;9.600;2024-03-06T02:44:22;1.90;;;1.70;;
20369;SDS011;10344;47.592;9.600;2024-03-06T02:46:48;3.10;;;1.70;;
20369;SDS011;10344;47.592;9.600;2024-03-06T02:49:14;1.70;;;1.60;;
20369;SDS011;10344;47.592;9.600;2024-03-06T02:51:41;1.83;;;1.73;;
20369;SDS011;10344;47.592;9.600;2024-03-06T02:54:06;1.80;;;1.70;;
20369;SDS011;10344;47.592;9.600;2024-03-06T02:56:32;1.85;;;1.65;;
20369;SDS011;10344;47.592;9.600;2024-03-06T02:58:57;1.90;;;1.80;;
20369;SDS011;10344;47.592;9.600;2024-03-06T03:01:28;1.65;;;1.55;;
20369;SDS011;10344;47.592;9.600;2024-03-06T03:03:56;1.70;;;1.60;;
20369;SDS011;10344;47.592;9.600;2024-03-06T03:06:22;1.80;;;1.70;;
20369;SDS011;10344;47.592;9.600;2024-03-06T03:08:51;1.85;;;1.65;;
20369;SDS011;10344;47.592;9.600;2024-03-06T03:11:16;1.60;;;1.50;;
20369;SDS011;10344;47.592;9.600;2024-03-06T03:13:42;1.60;;;1.50;;
20369;SDS011;10344;47.592;9.600;2024-03-06T03:16:18;1.70;;;1.60;;
20369;SDS011;10344;47.592;9.600;2024-03-06T03:18:45;1.67;;;1.58;;
20369;SDS011;10344;47.592;9.600;2024-03-06T03:21:11;1.75;;;1.63;;
20369;SDS011;10344;47.592;9.600;2024-03-06T03:23:39;1.55;;;1.42;;
20369;SDS011;10344;47.592;9.600;2024-03-06T03:26:05;2.10;;;1.70;;
20369;SDS011;10344;47.592;9.600;2024-03-06T03:28:32;1.85;;;1.70;;
20369;SDS011;10344;47.592;9.600;2024-03-06T03:30:58;1.60;;;1.50;;
20369;SDS011;10344;47.592;9.600;2024-03-06T03:33:26;1.55;;;1.45;;
20369;SDS011;10344;47.592;9.600;2024-03-06T03:35:51;1.43;;;1.33;;
20369;SDS011;10344;47.592;9.600;2024-03-06T03:38:17;2.10;;;1.90;;
20369;SDS011;10344;47.592;9.600;2024-03-06T03:40:43;2.00;;;1.80;;
20369;SDS011;10344;47.592;9.600;2024-03-06T03:43:08;2.20;;;2.00;;
20369;SDS011;10344;47.592;9.600;2024-03-06T03:45:34;1.90;;;1.75;;
20369;SDS011;10344;47.592;9.600;2024-03-06T03:48:04;1.83;;;1.67;;
20369;SDS011;10344;47.592;9.600;2024-03-06T03:50:30;1.88;;;1.77;;
20369;SDS011;10344;47.592;9.600;2024-03-06T03:52:56;2.22;;;2.03;;
20369;SDS011;10344;47.592;9.600;2024-03-06T03:55:23;2.38;;;2.17;;
20369;SDS011;10344;47.592;9.600;2024-03-06T03:57:50;2.35;;;2.15;;
20369;SDS011;10344;47.592;9.600;2024-03-06T04:00:16;2.40;;;2.20;;
20369;SDS011;10344;47.592;9.600;2024-03-06T04:02:42;2.00;;;1.85;;
20369;SDS011;10344;47.592;9.600;2024-03-06T04:05:07;2.20;;;1.98;;
20369;SDS011;10344;47.592;9.600;2024-03-06T04:07:34;2.15;;;1.95;;
20369;SDS011;10344;47.592;9.600;2024-03-06T04:10:01;2.10;;;1.90;;
20369;SDS011;10344;47.592;9.600;2024-03-06T04:12:27;2.30;;;2.10;;
20369;SDS011;10344;47.592;9.600;2024-03-06T04:14:52;2.55;;;1.90;;
20369;SDS011;10344;47.592;9.600;2024-03-06T04:17:20;2.40;;;2.20;;
20369;SDS011;10344;47.592;9.600;2024-03-06T04:19:46;2.45;;;2.22;;
20369;SDS011;10344;47.592;9.600;2024-03-06T04:22:13;2.20;;;2.10;;
20369;SDS011;10344;47.592;9.600;2024-03-06T04:24:42;2.38;;;2.13;;
20369;SDS011;10344;47.592;9.600;2024-03-06T04:27:08;2.40;;;2.20;;
20369;SDS011;10344;47.592;9.600;2024-03-06T04:29:36;2.47;;;2.28;;
20369;SDS011;10344;47.592;9.600;2024-03-06T04:32:02;2.43;;;2.10;;
20369;SDS011;10344;47.592;9.600;2024-03-06T04:34:27;2.50;;;2.20;;
20369;SDS011;10344;47.592;9.600;2024-03-06T04:36:53;2.42;;;2.22;;
20369;SDS011;10344;47.592;9.600;2024-03-06T04:39:21;2.30;;;2.10;;
20369;SDS011;10344;47.592;9.600;2024-03-06T04:41:47;2.40;;;2.20;;
20369;SDS011;10344;47.592;9.600;2024-03-06T04:44:13;2.50;;;2.30;;
20369;SDS011;10344;47.592;9.600;2024-03-06T04:46:38;2.30;;;2.10;;
20369;SDS011;10344;47.592;9.600;2024-03-06T04:49:04;2.20;;;2.00;;
20369;SDS011;10344;47.592;9.600;2024-03-06T04:51:29;2.33;;;2.13;;
20369;SDS011;10344;47.592;9.600;2024-03-06T04:53:55;2.20;;;2.10;;
20369;SDS011;10344;47.592;9.600;2024-03-06T04:56:21;2.50;;;2.30;;
20369;SDS011;10344;47.592;9.600;2024-03-06T04:58:47;2.45;;;2.13;;
20369;SDS011;10344;47.592;9.600;2024-03-06T05:01:13;2.50;;;2.30;;
20369;SDS011;10344;47.592;9.600;2024-03-06T05:03:38;2.40;;;2.20;;
20369;SDS011;10344;47.592;9.600;2024-03-06T05:06:05;2.53;;;2.33;;
20369;SDS011;10344;47.592;9.600;2024-03-06T05:08:31;2.33;;;2.13;;
20369;SDS011;10344;47.592;9.600;2024-03-06T05:10:56;2.20;;;2.00;;
20369;SDS011;10344;47.592;9.600;2024-03-06T05:13:25;1.92;;;1.80;;
20369;SDS011;10344;47.592;9.600;2024-03-06T05:15:51;1.92;;;1.75;;
20369;SDS011;10344;47.592;9.600;2024-03-06T05:18:17;2.03;;;1.83;;
20369;SDS011;10344;47.592;9.600;2024-03-06T05:20:43;2.20;;;2.00;;
20369;SDS011;10344;47.592;9.600;2024-03-06T05:23:11;2.15;;;1.95;;
20369;SDS011;10344;47.592;9.600;2024-03-06T05:25:42;2.53;;;2.30;;
20369;SDS011;10344;47.592;9.600;2024-03-06T05:28:07;2.83;;;2.53;;
20369;SDS011;10344;47.592;9.600;2024-03-06T05:30:33;2.40;;;2.20;;
20369;SDS011;10344;47.592;9.600;2024-03-06T05:32:59;2.40;;;2.20;;
20369;SDS011;10344;47.592;9.600;2024-03-06T05:35:24;2.25;;;2.05;;
20369;SDS011;10344;47.592;9.600;2024-03-06T05:37:50;2.37;;;1.93;;
20369;SDS011;10344;47.592;9.600;2024-03-06T05:40:15;1.95;;;1.80;;
20369;SDS011;10344;47.592;9.600;2024-03-06T05:42:46;2.65;;;1.80;;
20369;SDS011;10344;47.592;9.600;2024-03-06T05:45:11;2.30;;;2.10;;
20369;SDS011;10344;47.592;9.600;2024-03-06T05:47:39;2.40;;;2.20;;
20369;SDS011;10344;47.592;9.600;2024-03-06T05:50:05;2.53;;;2.30;;
20369;SDS011;10344;47.592;9.600;2024-03-06T05:52:32;2.30;;;2.10;;
20369;SDS011;10344;47.592;9.600;2024-03-06T05:54:58;2.55;;;2.15;;
20369;SDS011;10344;47.592;9.600;2024-03-06T05:57:23;2.60;;;2.20;;
20369;SDS011;10344;47.592;9.600;2024-03-06T05:59:49;3.47;;;3.00;;
20369;SDS011;10344;47.592;9.600;2024-03-06T06:02:18;3.23;;;2.57;;
20369;SDS011;10344;47.592;9.600;2024-03-06T06:04:45;2.58;;;2.38;;
20369;SDS011;10344;47.592;9.600;2024-03-06T06:07:12;2.20;;;2.00;;
20369;SDS011;10344;47.592;9.600;2024-03-06T06:09:40;2.00;;;1.80;;
20369;SDS011;10344;47.592;9.600;2024-03-06T06:12:06;2.08;;;1.88;;
20369;SDS011;10344;47.592;9.600;2024-03-06T06:14:32;2.08;;;1.88;;
20369;SDS011;10344;47.592;9.600;2024-03-06T06:16:57;1.80;;;1.70;;
20369;SDS011;10344;47.592;9.600;2024-03-06T06:19:23;2.10;;;1.83;;
20369;SDS011;10344;47.592;9.600;2024-03-06T06:21:49;2.20;;;2.00;;
20369;SDS011;10344;47.592;9.600;2024-03-06T06:24:20;2.60;;;1.88;;
20369;SDS011;10344;47.592;9.600;2024-03-06T06:26:45;1.73;;;1.63;;
20369;SDS011;10344;47.592;9.600;2024-03-06T06:29:11;1.80;;;1.70;;
20369;SDS011;10344;47.592;9.600;2024-03-06T06:31:36;2.00;;;1.80;;
20369;SDS011;10344;47.592;9.600;2024-03-06T06:34:02;1.60;;;1.50;;
20369;SDS011;10344;47.592;9.600;2024-03-06T06:36:28;1.50;;;1.40;;
20369;SDS011;10344;47.592;9.600;2024-03-06T06:38:54;1.67;;;1.58;;
20369;SDS011;10344;47.592;9.600;2024-03-06T06:41:20;1.55;;;1.45;;
20369;SDS011;10344;47.592;9.600;2024-03-06T06:43:45;1.80;;;1.70;;
20369;SDS011;10344;47.592;9.600;2024-03-06T06:46:11;1.50;;;1.40;;
20369;SDS011;10344;47.592;9.600;2024-03-06T06:48:37;1.70;;;1.60;;
20369;SDS011;10344;47.592;9.600;2024-03-06T06:51:03;1.63;;;1.53;;
20369;SDS011;10344;47.592;9.600;2024-03-06T06:53:31;1.80;;;1.70;;
20369;SDS011;10344;47.592;9.600;2024-03-06T06:55:59;1.70;;;1.60;;
20369;SDS011;10344;47.592;9.600;2024-03-06T06:58:25;1.70;;;1.60;;
20369;SDS011;10344;47.592;9.600;2024-03-06T07:00:52;1.90;;;1.80;;
20369;SDS011;10344;47.592;9.600;2024-03-06T07:03:18;1.90;;;1.80;;
20369;SDS011;10344;47.592;9.600;2024-03-06T07:05:43;1.53;;;1.43;;
20369;SDS011;10344;47.592;9.600;2024-03-06T07:08:09;1.65;;;1.55;;
20369;SDS011;10344;47.592;9.600;2024-03-06T07:10:37;1.80;;;1.70;;
20369;SDS011;10344;47.592;9.600;2024-03-06T07:13:03;1.80;;;1.70;;
20369;SDS011;10344;47.592;9.600;2024-03-06T07:15:29;1.90;;;1.80;;
20369;SDS011;10344;47.592;9.600;2024-03-06T07:17:55;1.70;;;1.60;;
20369;SDS011;10344;47.592;9.600;2024-03-06T07:20:21;1.80;;;1.70;;
20369;SDS011;10344;47.592;9.600;2024-03-06T07:22:46;2.00;;;1.90;;
20369;SDS011;10344;47.592;9.600;2024-03-06T07:25:12;1.70;;;1.60;;
20369;SDS011;10344;47.592;9.600;2024-03-06T07:27:40;1.90;;;1.80;;
20369;SDS011;10344;47.592;9.600;2024-03-06T07:30:05;1.67;;;1.58;;
20369;SDS011;10344;47.592;9.600;2024-03-06T07:32:32;1.80;;;1.70;;
20369;SDS011;10344;47.592;9.600;2024-03-06T07:34:57;1.80;;;1.70;;
20369;SDS011;10344;47.592;9.600;2024-03-06T07:37:25;2.25;;;1.80;;
20369;SDS011;10344;47.592;9.600;2024-03-06T07:39:51;2.00;;;1.90;;
20369;SDS011;10344;47.592;9.600;2024-03-06T07:42:16;1.83;;;1.70;;
20369;SDS011;10344;47.592;9.600;2024-03-06T07:44:43;2.03;;;1.90;;
20369;SDS011;10344;47.592;9.600;2024-03-06T07:47:08;1.95;;;1.75;;
20369;SDS011;10344;47.592;9.600;2024-03-06T07:49:37;2.00;;;1.90;;
20369;SDS011;10344;47.592;9.600;2024-03-06T07:52:02;1.70;;;1.60;;
20369;SDS011;10344;47.592;9.600;2024-03-06T07:54:28;2.17;;;1.97;;
20369;SDS011;10344;47.592;9.600;2024-03-06T07:56:54;2.42;;;2.22;;
20369;SDS011;10344;47.592;9.600;2024-03-06T07:59:19;2.10;;;2.00;;
20369;SDS011;10344;47.592;9.600;2024-03-06T08:01:45;2.37;;;2.17;;
20369;SDS011;10344;47.592;9.600;2024-03-06T08:04:11;2.35;;;2.13;;
20369;SDS011;10344;47.592;9.600;2024-03-06T08:06:39;2.30;;;2.00;;
20369;SDS011;10344;47.592;9.600;2024-03-06T08:09:04;3.15;;;2.00;;
20369;SDS011;10344;47.592;9.600;2024-03-06T08:11:31;1.80;;;1.70;;
20369;SDS011;10344;47.592;9.600;2024-03-06T08:13:58;1.90;;;1.70;;
20369;SDS011;10344;47.592;9.600;2024-03-06T08:16:27;1.90;;;1.80;;
20369;SDS011;10344;47.592;9.600;2024-03-06T08:18:53;2.25;;;1.80;;
20369;SDS011;10344;47.592;9.600;2024-03-06T08:21:20;1.90;;;1.80;;
20369;SDS011;10344;47.592;9.600;2024-03-06T08:23:46;1.80;;;1.70;;
20369;SDS011;10344;47.592;9.600;2024-03-06T08:26:14;2.13;;;1.92;;
20369;SDS011;10344;47.592;9.600;2024-03-06T08:28:40;1.98;;;1.88;;
20369;SDS011;10344;47.592;9.600;2024-03-06T08:31:05;1.70;;;1.60;;
20369;SDS011;10344;47.592;9.600;2024-03-06T08:33:31;1.70;;;1.60;;
20369;SDS011;10344;47.592;9.600;2024-03-06T08:35:56;1.90;;;1.80;;
20369;SDS011;10344;47.592;9.600;2024-03-06T08:38:25;1.80;;;1.70;;
20369;SDS011;10344;47.592;9.600;2024-03-06T08:40:51;2.08;;;1.88;;
20369;SDS011;10344;47.592;9.600;2024-03-06T08:43:17;1.90;;;1.80;;
20369;SDS011;10344;47.592;9.600;2024-03-06T08:45:44;2.30;;;1.77;;
20369;SDS011;10344;47.592;9.600;2024-03-06T08:48:10;1.73;;;1.63;;
20369;SDS011;10344;47.592;9.600;2024-03-06T08:50:36;1.80;;;1.70;;
20369;SDS011;10344;47.592;9.600;2024-03-06T08:53:02;1.80;;;1.70;;
20369;SDS011;10344;47.592;9.600;2024-03-06T08:55:28;1.97;;;1.80;;
20369;SDS011;10344;47.592;9.600;2024-03-06T08:57:56;1.83;;;1.73;;
20369;SDS011;10344;47.592;9.600;2024-03-06T09:00:26;1.80;;;1.70;;
20369;SDS011;10344;47.592;9.600;2024-03-06T09:02:51;1.80;;;1.70;;
20369;SDS011;10344;47.592;9.600;2024-03-06T09:05:18;1.90;;;1.80;;
20369;SDS011;10344;47.592;9.600;2024-03-06T09:07:47;1.80;;;1.70;;
20369;SDS011;10344;47.592;9.600;2024-03-06T09:10:12;1.93;;;1.83;;
20369;SDS011;10344;47.592;9.600;2024-03-06T09:12:38;2.10;;;1.80;;
20369;SDS011;10344;47.592;9.600;2024-03-06T09:15:05;1.88;;;1.63;;
20369;SDS011;10344;47.592;9.600;2024-03-06T09:17:35;2.47;;;1.80;;
20369;SDS011;10344;47.592;9.600;2024-03-06T09:20:00;1.93;;;1.83;;
20369;SDS011;10344;47.592;9.600;2024-03-06T09:22:34;1.90;;;1.70;;
20369;SDS011;10344;47.592;9.600;2024-03-06T09:25:07;1.70;;;1.60;;
20369;SDS011;10344;47.592;9.600;2024-03-06T09:27:33;2.30;;;2.10;;
20369;SDS011;10344;47.592;9.600;2024-03-06T09:29:59;2.10;;;1.90;;
20369;SDS011;10344;47.592;9.600;2024-03-06T09:32:25;2.13;;;1.92;;
20369;SDS011;10344;47.592;9.600;2024-03-06T09:34:51;2.38;;;2.17;;
20369;SDS011;10344;47.592;9.600;2024-03-06T09:37:17;2.38;;;1.88;;
20369;SDS011;10344;47.592;9.600;2024-03-06T09:39:43;2.20;;;2.00;;
20369;SDS011;10344;47.592;9.600;2024-03-06T09:42:12;2.17;;;1.70;;
20369;SDS011;10344;47.592;9.600;2024-03-06T09:44:43;1.85;;;1.75;;
20369;SDS011;10344;47.592;9.600;2024-03-06T09:47:11;1.80;;;1.70;;
20369;SDS011;10344;47.592;9.600;2024-03-06T09:49:39;1.77;;;1.67;;
20369;SDS011;10344;47.592;9.600;2024-03-06T09:52:05;1.90;;;1.80;;
20369;SDS011;10344;47.592;9.600;2024-03-06T09:54:31;1.73;;;1.63;;
20369;SDS011;10344;47.592;9.600;2024-03-06T09:56:57;1.50;;;1.40;;
20369;SDS011;10344;47.592;9.600;2024-03-06T09:59:24;1.70;;;1.60;;
20369;SDS011;10344;47.592;9.600;2024-03-06T10:04:20;1.50;;;1.40;;
20369;SDS011;10344;47.592;9.600;2024-03-06T10:06:48;1.60;;;1.50;;
20369;SDS011;10344;47.592;9.600;2024-03-06T10:09:17;1.70;;;1.60;;
20369;SDS011;10344;47.592;9.600;2024-03-06T10:11:44;1.60;;;1.50;;
20369;SDS011;10344;47.592;9.600;2024-03-06T10:14:13;1.70;;;1.60;;
20369;SDS011;10344;47.592;9.600;2024-03-06T10:19:24;2.35;;;1.80;;
20369;SDS011;10344;47.592;9.600;2024-03-06T10:21:52;1.80;;;1.70;;
20369;SDS011;10344;47.592;9.600;2024-03-06T10:24:22;1.83;;;1.60;;
20369;SDS011;10344;47.592;9.600;2024-03-06T10:26:49;1.63;;;1.53;;
20369;SDS011;10344;47.592;9.600;2024-03-06T10:29:17;1.48;;;1.38;;
20369;SDS011;10344;47.592;9.600;2024-03-06T10:34:18;1.85;;;1.50;;
20369;SDS011;10344;47.592;9.600;2024-03-06T10:36:45;1.73;;;1.52;;
20369;SDS011;10344;47.592;9.600;2024-03-06T10:39:13;1.55;;;1.42;;
20369;SDS011;10344;47.592;9.600;2024-03-06T10:41:40;1.60;;;1.50;;
20369;SDS011;10344;47.592;9.600;2024-03-06T10:44:08;1.70;;;1.60;;
20369;SDS011;10344;47.592;9.600;2024-03-06T10:46:38;1.70;;;1.60;;
20369;SDS011;10344;47.592;9.600;2024-03-06T10:49:08;1.65;;;1.50;;
20369;SDS011;10344;47.592;9.600;2024-03-06T10:51:37;6.05;;;1.90;;
20369;SDS011;10344;47.592;9.600;2024-03-06T10:54:07;1.50;;;1.40;;
20369;SDS011;10344;47.592;9.600;2024-03-06T10:56:34;1.50;;;1.40;;
20369;SDS011;10344;47.592;9.600;2024-03-06T10:59:00;1.55;;;1.40;;
20369;SDS011;10344;47.592;9.600;2024-03-06T11:01:27;1.55;;;1.40;;
20369;SDS011;10344;47.592;9.600;2024-03-06T11:03:57;1.77;;;1.67;;
20369;SDS011;10344;47.592;9.600;2024-03-06T11:06:25;1.70;;;1.60;;
20369;SDS011;10344;47.592;9.600;2024-03-06T11:08:51;1.58;;;1.40;;
20369;SDS011;10344;47.592;9.600;2024-03-06T11:11:21;1.70;;;1.60;;
20369;SDS011;10344;47.592;9.600;2024-03-06T11:13:47;1.63;;;1.50;;
20369;SDS011;10344;47.592;9.600;2024-03-06T11:16:13;1.80;;;1.70;;
20369;SDS011;10344;47.592;9.600;2024-03-06T11:23:34;1.88;;;1.77;;
20369;SDS011;10344;47.592;9.600;2024-03-06T11:28:32;1.95;;;1.85;;
20369;SDS011;10344;47.592;9.600;2024-03-06T11:31:09;1.80;;;1.70;;
20369;SDS011;10344;47.592;9.600;2024-03-06T11:33:39;1.90;;;1.80;;
20369;SDS011;10344;47.592;9.600;2024-03-06T11:36:15;3.05;;;1.90;;
20369;SDS011;10344;47.592;9.600;2024-03-06T11:38:57;2.15;;;1.95;;
20369;SDS011;10344;47.592;9.600;2024-03-06T11:41:46;2.08;;;1.88;;
20369;SDS011;10344;47.592;9.600;2024-03-06T11:44:15;1.92;;;1.73;;
20369;SDS011;10344;47.592;9.600;2024-03-06T11:51:45;2.00;;;1.80;;
20369;SDS011;10344;47.592;9.600;2024-03-06T11:54:12;1.52;;;1.42;;
20369;SDS011;10344;47.592;9.600;2024-03-06T11:56:44;1.90;;;1.80;;
20369;SDS011;10344;47.592;9.600;2024-03-06T11:59:15;1.50;;;1.40;;
20369;SDS011;10344;47.592;9.600;2024-03-06T12:01:41;1.90;;;1.70;;
20369;SDS011;10344;47.592;9.600;2024-03-06T12:04:07;2.03;;;1.80;;
20369;SDS011;10344;47.592;9.600;2024-03-06T12:06:33;1.80;;;1.70;;
20369;SDS011;10344;47.592;9.600;2024-03-06T12:09:01;2.30;;;2.08;;
20369;SDS011;10344;47.592;9.600;2024-03-06T12:11:27;2.03;;;1.83;;
20369;SDS011;10344;47.592;9.600;2024-03-06T12:13:53;1.60;;;1.50;;
20369;SDS011;10344;47.592;9.600;2024-03-06T12:16:22;1.90;;;1.80;;
20369;SDS011;10344;47.592;9.600;2024-03-06T12:18:59;1.85;;;1.75;;
20369;SDS011;10344;47.592;9.600;2024-03-06T12:21:28;2.65;;;2.00;;
20369;SDS011;10344;47.592;9.600;2024-03-06T12:24:03;2.15;;;1.95;;
20369;SDS011;10344;47.592;9.600;2024-03-06T12:26:30;2.00;;;1.83;;
20369;SDS011;10344;47.592;9.600;2024-03-06T12:31:31;2.30;;;2.10;;
20369;SDS011;10344;47.592;9.600;2024-03-06T12:33:58;2.00;;;1.80;;
20369;SDS011;10344;47.592;9.600;2024-03-06T12:36:32;2.13;;;1.92;;
20369;SDS011;10344;47.592;9.600;2024-03-06T12:38:59;2.20;;;1.95;;
20369;SDS011;10344;47.592;9.600;2024-03-06T12:41:26;2.28;;;1.85;;
20369;SDS011;10344;47.592;9.600;2024-03-06T12:43:55;2.55;;;1.88;;
20369;SDS011;10344;47.592;9.600;2024-03-06T12:46:23;2.00;;;1.80;;
20369;SDS011;10344;47.592;9.600;2024-03-06T12:48:51;2.10;;;1.70;;
20369;SDS011;10344;47.592;9.600;2024-03-06T12:51:17;2.88;;;1.83;;
20369;SDS011;10344;47.592;9.600;2024-03-06T12:53:45;2.13;;;1.92;;
20369;SDS011;10344;47.592;9.600;2024-03-06T12:56:10;1.70;;;1.60;;
20369;SDS011;10344;47.592;9.600;2024-03-06T12:58:36;1.60;;;1.50;;
20369;SDS011;10344;47.592;9.600;2024-03-06T13:01:04;1.42;;;1.33;;
20369;SDS011;10344;47.592;9.600;2024-03-06T13:03:30;1.50;;;1.40;;
20369;SDS011;10344;47.592;9.600;2024-03-06T13:05:57;1.60;;;1.50;;
20369;SDS011;10344;47.592;9.600;2024-03-06T13:08:23;1.60;;;1.50;;
20369;SDS011;10344;47.592;9.600;2024-03-06T13:10:51;1.50;;;1.40;;
20369;SDS011;10344;47.592;9.600;2024-03-06T13:13:16;1.50;;;1.40;;
20369;SDS011;10344;47.592;9.600;2024-03-06T13:15:42;1.60;;;1.50;;
20369;SDS011;10344;47.592;9.600;2024-03-06T13:18:08;1.48;;;1.40;;
20369;SDS011;10344;47.592;9.600;2024-03-06T13:20:34;1.50;;;1.40;;
20369;SDS011;10344;47.592;9.600;2024-03-06T13:23:00;1.20;;;1.20;;
20369;SDS011;10344;47.592;9.600;2024-03-06T13:25:26;1.50;;;1.40;;
20369;SDS011;10344;47.592;9.600;2024-03-06T13:27:54;1.30;;;1.20;;
20369;SDS011;10344;47.592;9.600;2024-03-06T13:30:20;1.20;;;1.20;;
20369;SDS011;10344;47.592;9.600;2024-03-06T13:32:46;1.55;;;1.45;;
20369;SDS011;10344;47.592;9.600;2024-03-06T13:35:12;1.50;;;1.40;;
20369;SDS011;10344;47.592;9.600;2024-03-06T13:37:39;1.40;;;1.30;;
20369;SDS011;10344;47.592;9.600;2024-03-06T13:40:07;1.58;;;1.48;;
20369;SDS011;10344;47.592;9.600;2024-03-06T13:42:35;1.60;;;1.40;;
20369;SDS011;10344;47.592;9.600;2024-03-06T13:45:02;1.40;;;1.30;;
20369;SDS011;10344;47.592;9.600;2024-03-06T13:47:28;1.50;;;1.40;;
20369;SDS011;10344;47.592;9.600;2024-03-06T13:49:55;1.40;;;1.30;;
20369;SDS011;10344;47.592;9.600;2024-03-06T13:52:23;1.17;;;1.17;;
20369;SDS011;10344;47.592;9.600;2024-03-06T13:54:50;1.38;;;1.27;;
20369;SDS011;10344;47.592;9.600;2024-03-06T13:57:16;1.47;;;1.37;;
20369;SDS011;10344;47.592;9.600;2024-03-06T13:59:44;1.33;;;1.23;;
20369;SDS011;10344;47.592;9.600;2024-03-06T14:02:10;1.43;;;1.33;;
20369;SDS011;10344;47.592;9.600;2024-03-06T14:04:35;1.33;;;1.23;;
20369;SDS011;10344;47.592;9.600;2024-03-06T14:07:01;1.40;;;1.30;;
20369;SDS011;10344;47.592;9.600;2024-03-06T14:09:27;1.37;;;1.27;;
20369;SDS011;10344;47.592;9.600;2024-03-06T14:11:53;1.40;;;1.30;;
20369;SDS011;10344;47.592;9.600;2024-03-06T14:14:19;1.27;;;1.17;;
20369;SDS011;10344;47.592;9.600;2024-03-06T14:16:45;1.10;;;1.10;;
20369;SDS011;10344;47.592;9.600;2024-03-06T14:19:11;1.50;;;1.40;;
20369;SDS011;10344;47.592;9.600;2024-03-06T14:21:37;1.20;;;1.20;;
20369;SDS011;10344;47.592;9.600;2024-03-06T14:24:03;1.20;;;1.10;;
20369;SDS011;10344;47.592;9.600;2024-03-06T14:26:33;1.33;;;1.23;;
20369;SDS011;10344;47.592;9.600;2024-03-06T14:28:59;1.10;;;1.10;;
20369;SDS011;10344;47.592;9.600;2024-03-06T14:31:31;1.40;;;1.30;;
20369;SDS011;10344;47.592;9.600;2024-03-06T14:33:56;1.52;;;1.33;;
20369;SDS011;10344;47.592;9.600;2024-03-06T14:36:22;1.30;;;1.20;;
20369;SDS011;10344;47.592;9.600;2024-03-06T14:38:50;1.80;;;1.40;;
20369;SDS011;10344;47.592;9.600;2024-03-06T14:41:17;1.10;;;1.10;;
20369;SDS011;10344;47.592;9.600;2024-03-06T14:43:46;1.45;;;1.35;;
20369;SDS011;10344;47.592;9.600;2024-03-06T14:46:12;1.13;;;1.13;;
20369;SDS011;10344;47.592;9.600;2024-03-06T14:48:38;1.20;;;1.10;;
20369;SDS011;10344;47.592;9.600;2024-03-06T14:51:06;1.50;;;1.40;;
20369;SDS011;10344;47.592;9.600;2024-03-06T14:53:32;2.00;;;1.40;;
20369;SDS011;10344;47.592;9.600;2024-03-06T14:55:58;1.17;;;1.17;;
20369;SDS011;10344;47.592;9.600;2024-03-06T14:58:24;1.40;;;1.30;;
20369;SDS011;10344;47.592;9.600;2024-03-06T15:00:52;1.20;;;1.20;;
20369;SDS011;10344;47.592;9.600;2024-03-06T15:03:20;1.20;;;1.08;;
20369;SDS011;10344;47.592;9.600;2024-03-06T15:05:45;1.40;;;1.30;;
20369;SDS011;10344;47.592;9.600;2024-03-06T15:08:11;1.40;;;1.30;;
20369;SDS011;10344;47.592;9.600;2024-03-06T15:10:37;2.47;;;1.27;;
20369;SDS011;10344;47.592;9.600;2024-03-06T15:13:03;1.10;;;1.10;;
20369;SDS011;10344;47.592;9.600;2024-03-06T15:15:31;1.27;;;1.13;;
20369;SDS011;10344;47.592;9.600;2024-03-06T15:17:59;1.67;;;1.27;;
20369;SDS011;10344;47.592;9.600;2024-03-06T15:20:25;1.30;;;1.20;;
20369;SDS011;10344;47.592;9.600;2024-03-06T15:22:52;1.27;;;1.20;;
20369;SDS011;10344;47.592;9.600;2024-03-06T15:25:18;1.08;;;1.08;;
20369;SDS011;10344;47.592;9.600;2024-03-06T15:27:43;1.40;;;1.30;;
20369;SDS011;10344;47.592;9.600;2024-03-06T15:30:12;1.17;;;1.13;;
20369;SDS011;10344;47.592;9.600;2024-03-06T15:32:39;1.38;;;1.20;;
20369;SDS011;10344;47.592;9.600;2024-03-06T15:35:05;1.03;;;1.03;;
20369;SDS011;10344;47.592;9.600;2024-03-06T15:37:31;0.88;;;0.88;;
20369;SDS011;10344;47.592;9.600;2024-03-06T15:39:57;0.70;;;0.70;;
20369;SDS011;10344;47.592;9.600;2024-03-06T15:42:23;0.95;;;0.95;;
20369;SDS011;10344;47.592;9.600;2024-03-06T15:44:49;1.13;;;1.02;;
20369;SDS011;10344;47.592;9.600;2024-03-06T15:47:16;0.83;;;0.83;;